sensor_id;sensor_type;location;lat;lon;timestamp;P1;durP1;ratioP1;P2;durP2;ratioP2
30466;SDS011;17258;52.560;13.046;2022-12-10T00:04:15;6.68;;;6.05;;
30466;SDS011;17258;52.560;13.046;2022-12-10T00:14:16;7.07;;;6.38;;
30466;SDS011;17258;52.560;13.046;2022-12-10T00:24:17;7.60;;;6.97;;
30466;SDS011;17258;52.560;13.046;2022-12-10T00:34:17;6.50;;;5.93;;
30466;SDS011;17258;52.560;13.046;2022-12-10T00:44:18;7.30;;;6.60;;
30466;SDS011;17258;52.560;13.046;2022-12-10T00:54:18;6.90;;;6.30;;
30466;SDS011;17258;52.560;13.046;2022-12-10T01:04:19;7.13;;;6.37;;
30466;SDS011;17258;52.560;13.046;2022-12-10T01:14:24;6.90;;;6.28;;
30466;SDS011;17258;52.560;13.046;2022-12-10T01:24:29;5.45;;;4.97;;
30466;SDS011;17258;52.560;13.046;2022-12-10T01:34:30;6.80;;;6.20;;
30466;SDS011;17258;52.560;13.046;2022-12-10T01:54:32;7.45;;;6.43;;
30466;SDS011;17258;52.560;13.046;2022-12-10T02:15:24;5.68;;;5.28;;
30466;SDS011;17258;52.560;13.046;2022-12-10T02:25:34;4.53;;;4.13;;
30466;SDS011;17258;52.560;13.046;2022-12-10T02:35:47;6.30;;;5.10;;
30466;SDS011;17258;52.560;13.046;2022-12-10T02:45:51;7.38;;;6.25;;
30466;SDS011;17258;52.560;13.046;2022-12-10T02:55:55;7.68;;;6.97;;
30466;SDS011;17258;52.560;13.046;2022-12-10T03:06:22;6.75;;;6.13;;
30466;SDS011;17258;52.560;13.046;2022-12-10T03:16:37;7.30;;;6.63;;
30466;SDS011;17258;52.560;13.046;2022-12-10T03:26:43;7.87;;;7.13;;
30466;SDS011;17258;52.560;13.046;2022-12-10T03:36:47;6.47;;;5.30;;
30466;SDS011;17258;52.560;13.046;2022-12-10T03:46:48;7.32;;;6.65;;
30466;SDS011;17258;52.560;13.046;2022-12-10T03:56:50;7.53;;;6.88;;
30466;SDS011;17258;52.560;13.046;2022-12-10T04:06:50;6.87;;;6.27;;
30466;SDS011;17258;52.560;13.046;2022-12-10T04:16:51;7.25;;;6.18;;
30466;SDS011;17258;52.560;13.046;2022-12-10T04:26:52;6.77;;;6.27;;
30466;SDS011;17258;52.560;13.046;2022-12-10T04:36:54;6.38;;;5.88;;
30466;SDS011;17258;52.560;13.046;2022-12-10T04:46:54;7.72;;;6.90;;
30466;SDS011;17258;52.560;13.046;2022-12-10T04:56:56;7.05;;;6.45;;
30466;SDS011;17258;52.560;13.046;2022-12-10T05:06:56;5.25;;;4.85;;
30466;SDS011;17258;52.560;13.046;2022-12-10T05:16:58;8.93;;;6.35;;
30466;SDS011;17258;52.560;13.046;2022-12-10T05:26:59;7.78;;;7.00;;
30466;SDS011;17258;52.560;13.046;2022-12-10T05:36:59;6.75;;;6.13;;
30466;SDS011;17258;52.560;13.046;2022-12-10T05:47:00;5.57;;;5.17;;
30466;SDS011;17258;52.560;13.046;2022-12-10T05:57:01;5.53;;;4.90;;
30466;SDS011;17258;52.560;13.046;2022-12-10T06:07:01;6.93;;;6.33;;
30466;SDS011;17258;52.560;13.046;2022-12-10T06:17:02;8.10;;;6.43;;
30466;SDS011;17258;52.560;13.046;2022-12-10T06:27:03;8.00;;;6.13;;
30466;SDS011;17258;52.560;13.046;2022-12-10T06:37:05;7.80;;;6.07;;
30466;SDS011;17258;52.560;13.046;2022-12-10T06:47:05;6.10;;;5.30;;
30466;SDS011;17258;52.560;13.046;2022-12-10T06:57:06;6.23;;;5.67;;
30466;SDS011;17258;52.560;13.046;2022-12-10T07:07:06;5.57;;;4.80;;
30466;SDS011;17258;52.560;13.046;2022-12-10T07:17:07;5.17;;;4.67;;
30466;SDS011;17258;52.560;13.046;2022-12-10T07:27:09;5.88;;;5.45;;
30466;SDS011;17258;52.560;13.046;2022-12-10T07:37:09;5.63;;;5.20;;
30466;SDS011;17258;52.560;13.046;2022-12-10T07:47:10;5.23;;;4.70;;
30466;SDS011;17258;52.560;13.046;2022-12-10T07:57:11;6.07;;;4.65;;
30466;SDS011;17258;52.560;13.046;2022-12-10T08:07:12;4.60;;;4.18;;
30466;SDS011;17258;52.560;13.046;2022-12-10T08:17:12;5.20;;;4.70;;
30466;SDS011;17258;52.560;13.046;2022-12-10T08:27:13;7.85;;;4.68;;
30466;SDS011;17258;52.560;13.046;2022-12-10T08:37:14;5.57;;;5.13;;
30466;SDS011;17258;52.560;13.046;2022-12-10T08:47:14;10.05;;;7.50;;
30466;SDS011;17258;52.560;13.046;2022-12-10T08:57:15;5.93;;;5.37;;
30466;SDS011;17258;52.560;13.046;2022-12-10T09:07:16;5.88;;;5.35;;
30466;SDS011;17258;52.560;13.046;2022-12-10T09:17:17;5.53;;;5.00;;
30466;SDS011;17258;52.560;13.046;2022-12-10T09:27:18;5.53;;;5.13;;
30466;SDS011;17258;52.560;13.046;2022-12-10T09:37:20;6.10;;;5.60;;
30466;SDS011;17258;52.560;13.046;2022-12-10T09:47:21;6.17;;;5.50;;
30466;SDS011;17258;52.560;13.046;2022-12-10T09:57:32;6.18;;;5.68;;
30466;SDS011;17258;52.560;13.046;2022-12-10T10:07:47;7.67;;;6.90;;
30466;SDS011;17258;52.560;13.046;2022-12-10T10:17:52;8.02;;;5.82;;
30466;SDS011;17258;52.560;13.046;2022-12-10T10:27:55;8.13;;;6.72;;
30466;SDS011;17258;52.560;13.046;2022-12-10T10:37:56;8.98;;;7.63;;
30466;SDS011;17258;52.560;13.046;2022-12-10T10:48:27;9.13;;;7.63;;
30466;SDS011;17258;52.560;13.046;2022-12-10T10:58:28;6.35;;;5.82;;
30466;SDS011;17258;52.560;13.046;2022-12-10T11:08:30;5.85;;;5.35;;
30466;SDS011;17258;52.560;13.046;2022-12-10T11:18:35;6.85;;;6.22;;
30466;SDS011;17258;52.560;13.046;2022-12-10T11:50:03;6.57;;;5.90;;
30466;SDS011;17258;52.560;13.046;2022-12-10T12:00:17;6.32;;;5.38;;
30466;SDS011;17258;52.560;13.046;2022-12-10T12:21:06;6.13;;;5.47;;
30466;SDS011;17258;52.560;13.046;2022-12-10T12:31:12;6.43;;;5.72;;
30466;SDS011;17258;52.560;13.046;2022-12-10T12:41:34;6.40;;;5.80;;
30466;SDS011;17258;52.560;13.046;2022-12-10T12:51:46;5.78;;;5.18;;
30466;SDS011;17258;52.560;13.046;2022-12-10T13:01:58;5.60;;;5.15;;
30466;SDS011;17258;52.560;13.046;2022-12-10T13:12:30;8.40;;;4.80;;
30466;SDS011;17258;52.560;13.046;2022-12-10T13:33:17;5.32;;;4.68;;
30466;SDS011;17258;52.560;13.046;2022-12-10T13:43:29;5.07;;;4.65;;
30466;SDS011;17258;52.560;13.046;2022-12-10T13:54:31;4.70;;;4.07;;
30466;SDS011;17258;52.560;13.046;2022-12-10T14:15:51;5.28;;;4.70;;
30466;SDS011;17258;52.560;13.046;2022-12-10T14:25:58;4.97;;;4.57;;
30466;SDS011;17258;52.560;13.046;2022-12-10T14:36:17;5.55;;;4.57;;
30466;SDS011;17258;52.560;13.046;2022-12-10T14:46:28;5.65;;;5.07;;
30466;SDS011;17258;52.560;13.046;2022-12-10T14:56:37;6.22;;;5.63;;
30466;SDS011;17258;52.560;13.046;2022-12-10T15:06:38;7.38;;;5.43;;
30466;SDS011;17258;52.560;13.046;2022-12-10T15:16:40;5.88;;;5.28;;
30466;SDS011;17258;52.560;13.046;2022-12-10T15:26:44;5.93;;;5.35;;
30466;SDS011;17258;52.560;13.046;2022-12-10T15:36:49;4.32;;;3.95;;
30466;SDS011;17258;52.560;13.046;2022-12-10T15:47:05;3.30;;;3.03;;
30466;SDS011;17258;52.560;13.046;2022-12-10T15:57:20;4.43;;;4.07;;
30466;SDS011;17258;52.560;13.046;2022-12-10T16:07:22;6.75;;;5.43;;
30466;SDS011;17258;52.560;13.046;2022-12-10T16:17:23;5.03;;;4.53;;
30466;SDS011;17258;52.560;13.046;2022-12-10T16:27:23;4.57;;;4.20;;
30466;SDS011;17258;52.560;13.046;2022-12-10T16:37:24;6.70;;;4.80;;
30466;SDS011;17258;52.560;13.046;2022-12-10T16:47:24;4.77;;;4.37;;
30466;SDS011;17258;52.560;13.046;2022-12-10T16:57:26;6.38;;;5.78;;
30466;SDS011;17258;52.560;13.046;2022-12-10T17:07:27;7.30;;;6.07;;
30466;SDS011;17258;52.560;13.046;2022-12-10T17:17:27;8.50;;;6.20;;
30466;SDS011;17258;52.560;13.046;2022-12-10T17:27:28;6.70;;;6.07;;
30466;SDS011;17258;52.560;13.046;2022-12-10T17:37:30;7.80;;;6.27;;
30466;SDS011;17258;52.560;13.046;2022-12-10T17:47:31;6.57;;;5.97;;
30466;SDS011;17258;52.560;13.046;2022-12-10T17:57:32;7.00;;;5.82;;
30466;SDS011;17258;52.560;13.046;2022-12-10T18:07:33;8.55;;;6.88;;
30466;SDS011;17258;52.560;13.046;2022-12-10T18:17:34;5.70;;;5.15;;
30466;SDS011;17258;52.560;13.046;2022-12-10T18:27:34;6.80;;;5.70;;
30466;SDS011;17258;52.560;13.046;2022-12-10T18:37:35;5.67;;;5.13;;
30466;SDS011;17258;52.560;13.046;2022-12-10T18:47:36;5.35;;;4.85;;
30466;SDS011;17258;52.560;13.046;2022-12-10T18:57:37;5.38;;;4.78;;
30466;SDS011;17258;52.560;13.046;2022-12-10T19:07:37;9.67;;;6.87;;
30466;SDS011;17258;52.560;13.046;2022-12-10T19:17:38;6.20;;;5.60;;
30466;SDS011;17258;52.560;13.046;2022-12-10T19:27:40;5.93;;;5.32;;
30466;SDS011;17258;52.560;13.046;2022-12-10T19:37:41;5.37;;;4.83;;
30466;SDS011;17258;52.560;13.046;2022-12-10T19:47:43;6.55;;;5.95;;
30466;SDS011;17258;52.560;13.046;2022-12-10T19:57:44;7.65;;;6.00;;
30466;SDS011;17258;52.560;13.046;2022-12-10T20:07:46;7.45;;;6.75;;
30466;SDS011;17258;52.560;13.046;2022-12-10T20:17:47;6.75;;;6.15;;
30466;SDS011;17258;52.560;13.046;2022-12-10T20:27:48;8.18;;;6.47;;
30466;SDS011;17258;52.560;13.046;2022-12-10T20:37:49;7.78;;;6.95;;
30466;SDS011;17258;52.560;13.046;2022-12-10T20:47:50;9.20;;;7.68;;
30466;SDS011;17258;52.560;13.046;2022-12-10T20:57:51;6.43;;;5.87;;
30466;SDS011;17258;52.560;13.046;2022-12-10T21:07:51;8.97;;;8.07;;
30466;SDS011;17258;52.560;13.046;2022-12-10T21:17:52;8.70;;;7.03;;
30466;SDS011;17258;52.560;13.046;2022-12-10T21:27:53;7.87;;;6.27;;
30466;SDS011;17258;52.560;13.046;2022-12-10T21:37:53;9.53;;;7.13;;
30466;SDS011;17258;52.560;13.046;2022-12-10T21:47:54;7.20;;;6.50;;
30466;SDS011;17258;52.560;13.046;2022-12-10T21:57:58;7.53;;;6.78;;
30466;SDS011;17258;52.560;13.046;2022-12-10T22:07:58;6.83;;;6.23;;
30466;SDS011;17258;52.560;13.046;2022-12-10T22:17:59;11.23;;;6.83;;
30466;SDS011;17258;52.560;13.046;2022-12-10T22:28:00;7.53;;;6.80;;
30466;SDS011;17258;52.560;13.046;2022-12-10T22:38:00;12.47;;;9.53;;
30466;SDS011;17258;52.560;13.046;2022-12-10T22:48:02;14.05;;;10.45;;
30466;SDS011;17258;52.560;13.046;2022-12-10T22:58:02;9.25;;;8.45;;
30466;SDS011;17258;52.560;13.046;2022-12-10T23:08:04;7.55;;;6.80;;
30466;SDS011;17258;52.560;13.046;2022-12-10T23:18:06;8.68;;;7.80;;
30466;SDS011;17258;52.560;13.046;2022-12-10T23:28:09;9.75;;;7.38;;
30466;SDS011;17258;52.560;13.046;2022-12-10T23:38:10;9.52;;;7.85;;
30466;SDS011;17258;52.560;13.046;2022-12-10T23:48:11;7.03;;;6.43;;
30466;SDS011;17258;52.560;13.046;2022-12-10T23:58:12;9.32;;;8.52;;
